createdAt,value
2022-11-17T00:07:24.490Z,14.03
2022-11-17T00:18:16.623Z,17.23
2022-11-17T00:28:37.812Z,15.90
2022-11-17T00:39:00.594Z,10.73
2022-11-17T00:49:25.146Z,17.48
2022-11-17T00:59:47.999Z,14.20
2022-11-17T01:10:11.198Z,16.50
2022-11-17T01:32:45.345Z,17.48
2022-11-17T01:54:12.375Z,11.02
2022-11-17T02:05:04.776Z,11.60
2022-11-17T02:27:31.568Z,11.52
2022-11-17T02:38:02.088Z,11.40
2022-11-17T02:48:29.244Z,17.17
2022-11-17T03:09:22.707Z,11.93
2022-11-17T03:19:47.138Z,16.95
2022-11-17T03:30:11.684Z,15.57
2022-11-17T03:40:35.252Z,16.10
2022-11-17T04:02:32.755Z,15.00
2022-11-17T04:13:14.377Z,13.27
2022-11-17T04:23:39.985Z,13.80
2022-11-17T04:34:21.164Z,13.57
2022-11-17T04:44:47.225Z,12.25
2022-11-17T04:55:12.858Z,15.57
2022-11-17T05:05:34.868Z,13.02
2022-11-17T05:16:19.221Z,17.55
2022-11-17T05:26:41.128Z,16.27
2022-11-17T05:37:04.881Z,11.88
2022-11-17T05:47:26.985Z,14.85
2022-11-17T05:57:51.522Z,13.23
2022-11-17T06:08:13.167Z,15.82
2022-11-17T06:18:42.970Z,12.45
2022-11-17T06:29:06.021Z,15.77
2022-11-17T06:39:28.864Z,18.73
2022-11-17T06:49:51.185Z,11.10
2022-11-17T07:00:16.186Z,14.45
2022-11-17T07:10:38.821Z,13.57
2022-11-17T07:21:04.844Z,10.23
2022-11-17T07:31:30.937Z,9.55
2022-11-17T07:41:58.886Z,11.13
2022-11-17T07:52:25.405Z,12.87
2022-11-17T08:02:55.398Z,11.10
2022-11-17T08:13:26.727Z,11.93
2022-11-17T08:24:02.017Z,11.63
2022-11-17T08:34:24.931Z,9.07
2022-11-17T08:44:50.250Z,14.35
2022-11-17T08:55:14.488Z,11.88
2022-11-17T09:05:44.815Z,10.18
2022-11-17T09:16:09.447Z,12.82
2022-11-17T09:26:32.314Z,14.45
2022-11-17T09:36:57.659Z,16.80
2022-11-17T09:47:33.253Z,12.90
2022-11-17T09:58:04.566Z,13.50
2022-11-17T10:08:34.561Z,14.93
2022-11-17T10:18:57.080Z,14.68
2022-11-17T10:29:23.870Z,13.50
2022-11-17T10:39:45.674Z,13.80
2022-11-17T10:50:19.151Z,12.13
2022-11-17T11:00:40.878Z,12.05
2022-11-17T11:11:16.981Z,19.35
2022-11-17T11:21:50.738Z,11.63
2022-11-17T11:32:25.698Z,11.40
2022-11-17T11:42:57.669Z,11.18
2022-11-17T11:53:26.151Z,13.70
2022-11-17T12:03:57.826Z,11.25
2022-11-17T12:14:20.728Z,9.30
2022-11-17T12:24:44.250Z,12.80
2022-11-17T12:35:26.645Z,10.88
2022-11-17T12:46:16.929Z,10.75
2022-11-17T12:56:47.526Z,11.52
2022-11-17T13:07:19.757Z,13.00
2022-11-17T13:17:44.265Z,12.20
2022-11-17T13:28:06.809Z,10.75
2022-11-17T13:38:29.569Z,10.15
2022-11-17T13:48:51.712Z,12.38
2022-11-17T13:59:27.566Z,11.75
2022-11-17T14:09:49.425Z,13.87
2022-11-17T14:20:33.194Z,11.15
2022-11-17T14:30:57.838Z,13.38
2022-11-17T14:41:23.548Z,12.35
2022-11-17T14:51:49.189Z,10.95
2022-11-17T15:02:12.749Z,11.38
2022-11-17T15:12:36.750Z,13.02
2022-11-17T15:23:03.249Z,13.02
2022-11-17T15:33:25.029Z,12.27
2022-11-17T15:43:49.264Z,11.80
2022-11-17T16:06:12.417Z,11.18
2022-11-17T16:16:37.893Z,14.80
2022-11-17T16:27:01.148Z,14.70
2022-11-17T16:37:22.639Z,15.10
2022-11-17T16:47:45.127Z,21.63
2022-11-17T16:58:07.957Z,13.23
2022-11-17T17:08:30.934Z,14.88
2022-11-17T17:18:55.793Z,11.85
2022-11-17T17:29:18.933Z,18.35
2022-11-17T17:39:40.867Z,13.73
2022-11-17T17:50:03.502Z,18.92
2022-11-17T18:00:24.952Z,16.88
2022-11-17T18:10:52.361Z,15.75
2022-11-17T18:21:17.183Z,21.17
2022-11-17T18:31:47.627Z,18.65
2022-11-17T18:42:23.272Z,20.27
2022-11-17T18:52:57.115Z,19.52
2022-11-17T19:03:50.617Z,20.27
2022-11-17T19:14:13.802Z,17.98
2022-11-17T19:24:35.810Z,20.58
2022-11-17T19:35:09.620Z,16.95
2022-11-17T19:45:35.427Z,22.27
2022-11-17T19:56:01.540Z,19.58
2022-11-17T20:18:17.795Z,24.17
2022-11-17T20:28:45.183Z,24.13
2022-11-17T20:39:34.497Z,24.45
2022-11-17T20:51:02.282Z,26.58
2022-11-17T21:01:56.916Z,18.48
2022-11-17T21:13:06.637Z,21.25
2022-11-17T21:24:09.420Z,23.35
2022-11-17T21:34:31.111Z,14.82
2022-11-17T21:45:20.409Z,20.17
2022-11-17T21:55:41.844Z,17.90
2022-11-17T22:06:13.596Z,21.25
2022-11-17T22:16:35.970Z,18.63
2022-11-17T22:26:58.977Z,17.13
2022-11-17T22:37:20.728Z,30.00
2022-11-17T22:47:43.425Z,16.67
2022-11-17T22:58:07.032Z,21.05
2022-11-17T23:08:29.826Z,29.27
2022-11-17T23:18:53.560Z,21.95
2022-11-17T23:29:16.506Z,24.73
2022-11-17T23:39:38.289Z,20.95
2022-11-17T23:50:02.918Z,23.80
